Time;durP1;ratioP1;P1;durP2;ratioP2;P2;SDS_P1;SDS_P2;PMS_P1;PMS_P2;Temp;Humidity;BMP_temperature;BMP_pressure;BME280_temperature;BME280_humidity;BME280_pressure;Samples;Min_cycle;Max_cycle;Signal;HPM_P1;HPM_P2
2022/07/18 12:38:11;;;;;;;1.17;1.08;;;;;;;25.70;28.13;101032.25;20512416;27;96553;-78
2022/07/18 12:48:12;;;;;;;3.80;0.98;;;;;;;25.77;27.28;101025.44;20464868;28;98415;-77
2022/07/18 12:58:13;;;;;;;1.77;0.97;;;;;;;25.85;26.71;101015.03;20467028;28;97172;-77
2022/07/18 13:08:14;;;;;;;1.80;1.13;;;;;;;25.93;26.07;101010.81;20467570;28;98878;-77
2022/07/18 13:18:14;;;;;;;1.57;0.90;;;;;;;26.01;25.49;101001.22;20480789;28;98076;-80
2022/07/18 13:28:14;;;;;;;3.20;1.20;;;;;;;26.08;26.21;100996.25;20466047;28;97712;-78
2022/07/18 13:38:15;;;;;;;2.58;0.77;;;;;;;26.16;25.45;100988.44;20485976;28;97157;-79
2022/07/18 13:48:16;;;;;;;1.30;1.00;;;;;;;26.23;25.36;100972.78;20443335;28;98257;-79
2022/07/18 13:58:17;;;;;;;8.02;1.15;;;;;;;26.31;25.96;100964.16;20433150;28;98074;-77
2022/07/18 14:08:17;;;;;;;2.33;0.82;;;;;;;26.38;26.06;100952.00;20432617;28;98508;-77
2022/07/18 14:18:18;;;;;;;4.13;1.00;;;;;;;26.47;25.84;100951.13;20420994;28;97101;-77
2022/07/18 14:28:18;;;;;;;5.60;1.03;;;;;;;26.53;25.54;100947.09;20402324;28;97959;-77
2022/07/18 14:38:19;;;;;;;5.85;1.08;;;;;;;26.57;26.69;100945.81;20395826;28;98297;-74
2022/07/18 14:48:20;;;;;;;3.77;1.50;;;;;;;26.62;27.00;100921.50;20386955;28;97496;-76
2022/07/18 14:58:20;;;;;;;3.60;0.80;;;;;;;26.77;26.44;100920.13;20375748;28;98042;-77
2022/07/18 15:08:21;;;;;;;2.30;1.00;;;;;;;26.87;26.48;100906.81;20407414;28;100700;-77
2022/07/18 15:18:21;;;;;;;2.17;1.20;;;;;;;27.00;25.12;100891.38;20393535;28;99069;-77
2022/07/18 15:28:22;;;;;;;2.13;0.85;;;;;;;27.11;24.84;100877.06;20331154;28;97745;-77
2022/07/18 15:38:24;;;;;;;2.70;0.80;;;;;;;27.21;24.14;100871.72;20330063;28;100907;-75
2022/07/18 15:48:24;;;;;;;2.20;1.10;;;;;;;27.42;23.70;100870.66;20297125;28;99193;-78
2022/07/18 15:58:25;;;;;;;2.35;0.93;;;;;;;27.87;23.74;100867.13;20309313;28;97712;-76
2022/07/18 16:08:27;;;;;;;3.75;1.10;;;;;;;27.63;23.81;100857.06;20324962;28;97170;-76
2022/07/18 16:18:27;;;;;;;4.32;1.30;;;;;;;27.50;24.24;100852.09;20330709;28;97107;-75
2022/07/18 16:28:28;;;;;;;6.05;1.80;;;;;;;27.42;25.25;100849.38;20300588;28;97895;-74
2022/07/18 16:38:28;;;;;;;7.03;2.42;;;;;;;27.39;26.08;100850.50;20301965;28;98583;-75
2022/07/18 16:48:29;;;;;;;6.70;2.30;;;;;;;27.38;26.70;100838.16;20317989;28;97179;-74
2022/07/18 16:58:30;;;;;;;9.57;2.55;;;;;;;27.34;27.14;100847.41;20316745;28;101739;-73
2022/07/18 17:08:31;;;;;;;6.63;2.20;;;;;;;27.28;27.55;100835.56;20294926;28;100406;-74
2022/07/18 17:18:32;;;;;;;9.00;1.63;;;;;;;27.22;27.49;100840.63;20308285;28;97140;-75
2022/07/18 17:28:32;;;;;;;5.65;1.77;;;;;;;27.13;27.53;100843.19;20389800;28;98489;-78
2022/07/18 17:38:33;;;;;;;27.23;8.67;;;;;;;27.07;27.98;100846.44;20384619;28;98177;-81
2022/07/18 17:48:34;;;;;;;26.80;9.30;;;;;;;27.03;28.61;100853.03;20416192;28;97720;-82
2022/07/18 17:58:34;;;;;;;14.13;5.40;;;;;;;26.98;28.85;100847.31;20489076;28;97525;-80
2022/07/18 18:08:35;;;;;;;13.52;5.10;;;;;;;26.93;28.95;100858.38;20450563;28;97503;-80
2022/07/18 18:18:36;;;;;;;6.82;2.60;;;;;;;26.87;27.16;100861.63;20404217;28;97219;-79
2022/07/18 18:28:36;;;;;;;;;;;;;;;26.80;26.21;100866.66;20404156;28;100470;-81
2022/07/18 18:39:04;;;;;;;1.90;1.45;;;;;;;26.73;24.86;100865.53;20497688;28;96969;-78
2022/07/18 18:49:04;;;;;;;3.63;1.70;;;;;;;26.67;25.35;100888.22;20498438;28;97554;-79
2022/07/18 18:59:05;;;;;;;9.82;2.60;;;;;;;26.61;25.46;100894.09;20491434;28;97302;-79
2022/07/18 19:09:23;;;;;;;4.77;2.27;;;;;;;26.50;25.04;100897.75;20456429;28;97498;-78
2022/07/18 19:19:26;;;;;;;7.63;2.70;;;;;;;26.47;27.19;100910.47;20442920;28;97952;-72
2022/07/18 19:29:29;;;;;;;3.25;1.52;;;;;;;26.34;25.84;100918.72;20434169;28;96972;-73
2022/07/18 19:39:30;;;;;;;7.05;2.75;;;;;;;26.21;25.81;100919.00;20453670;28;97902;-72
2022/07/18 19:49:30;;;;;;;2.47;1.75;;;;;;;26.04;26.20;100923.16;20419102;28;97136;-73
2022/07/18 19:59:31;;;;;;;3.45;1.40;;;;;;;25.88;26.84;100921.03;20384158;28;97009;-73
2022/07/18 20:09:37;;;;;;;3.33;1.88;;;;;;;25.83;26.36;100917.94;20441633;28;96988;-73
2022/07/18 20:19:38;;;;;;;2.88;1.98;;;;;;;25.75;27.26;100923.13;20376334;28;99636;-71
2022/07/18 20:29:38;;;;;;;5.43;2.07;;;;;;;25.60;26.94;100923.50;20362836;28;96892;-72
2022/07/18 20:39:41;;;;;;;13.35;2.22;;;;;;;25.54;27.27;100926.69;20397282;28;96928;-71
2022/07/18 20:49:41;;;;;;;5.72;2.20;;;;;;;25.31;28.36;100918.88;20433282;28;97089;-71
2022/07/18 20:59:44;;;;;;;6.53;2.30;;;;;;;25.16;28.79;100925.50;20404315;28;96870;-72
2022/07/18 21:09:44;;;;;;;3.10;2.07;;;;;;;25.04;28.72;100924.78;20380062;28;96872;-71
2022/07/18 21:19:45;;;;;;;6.18;2.70;;;;;;;25.03;28.57;100933.69;20371416;28;97534;-72
2022/07/18 21:29:47;;;;;;;2.80;1.83;;;;;;;24.91;28.82;100933.78;20363107;28;97893;-73
2022/07/18 21:39:55;;;;;;;5.40;2.20;;;;;;;24.72;29.71;100931.81;20361518;28;97045;-72
2022/07/18 21:49:57;;;;;;;8.30;2.50;;;;;;;24.57;30.07;100939.22;20390062;28;96939;-73
2022/07/18 22:00:00;;;;;;;4.77;2.60;;;;;;;24.43;30.73;100937.69;20357297;28;97046;-72
2022/07/18 22:10:02;;;;;;;6.63;2.80;;;;;;;24.34;31.26;100937.63;20381853;28;97052;-73
2022/07/18 22:20:05;;;;;;;8.95;2.67;;;;;;;24.18;31.78;100927.47;20349451;28;96859;-71
2022/07/18 22:30:15;;;;;;;8.18;2.88;;;;;;;24.05;32.44;100931.13;20395327;28;97102;-71
2022/07/18 22:40:18;;;;;;;8.40;3.10;;;;;;;23.95;32.61;100924.91;20449256;28;96896;-71
2022/07/18 22:50:20;;;;;;;6.00;2.97;;;;;;;23.71;33.39;100930.31;20455922;28;97647;-72
2022/07/18 23:00:20;;;;;;;3.93;2.70;;;;;;;23.64;33.70;100936.09;20454628;28;97142;-71
2022/07/18 23:10:28;;;;;;;7.93;2.58;;;;;;;23.54;34.09;100932.47;20433828;28;96880;-71
2022/07/18 23:20:30;;;;;;;6.32;2.80;;;;;;;23.41;34.46;100930.00;20433838;28;97031;-71
2022/07/18 23:30:32;;;;;;;4.37;2.47;;;;;;;23.31;34.66;100932.50;20408000;28;98749;-72
2022/07/18 23:40:39;;;;;;;4.63;2.38;;;;;;;23.11;35.13;100939.28;20353035;28;97341;-73
2022/07/18 23:50:44;;;;;;;5.28;2.40;;;;;;;22.99;35.58;100933.13;20353345;28;97664;-72
